createdAt,value
2022-09-16T00:00:11.405Z,12.43
2022-09-16T00:02:40.090Z,12.46
2022-09-16T00:05:06.529Z,12.43
2022-09-16T00:07:32.755Z,12.39
2022-09-16T00:09:59.451Z,12.42
2022-09-16T00:12:25.720Z,12.40
2022-09-16T00:14:51.851Z,12.34
2022-09-16T00:17:18.060Z,12.36
2022-09-16T00:19:44.627Z,12.30
2022-09-16T00:22:11.048Z,12.24
2022-09-16T00:24:37.256Z,12.25
2022-09-16T00:27:03.768Z,12.39
2022-09-16T00:29:30.102Z,12.34
2022-09-16T00:31:56.450Z,12.32
2022-09-16T00:34:22.674Z,12.30
2022-09-16T00:36:48.782Z,12.38
2022-09-16T00:39:14.943Z,12.33
2022-09-16T00:41:41.128Z,12.57
2022-09-16T00:44:07.381Z,12.61
2022-09-16T00:46:33.807Z,12.50
2022-09-16T00:49:00.125Z,12.49
2022-09-16T00:51:26.276Z,12.39
2022-09-16T00:53:54.889Z,12.34
2022-09-16T00:56:21.093Z,12.32
2022-09-16T00:58:47.184Z,12.46
2022-09-16T01:01:13.429Z,12.40
2022-09-16T01:03:39.566Z,12.39
2022-09-16T01:06:05.703Z,12.33
2022-09-16T01:08:31.930Z,12.35
2022-09-16T01:10:58.048Z,12.33
2022-09-16T01:13:24.223Z,12.21
2022-09-16T01:15:50.430Z,12.19
2022-09-16T01:18:16.610Z,12.20
2022-09-16T01:20:42.762Z,12.17
2022-09-16T01:23:09.285Z,12.15
2022-09-16T01:25:35.410Z,12.14
2022-09-16T01:28:01.515Z,12.19
2022-09-16T01:30:29.740Z,12.14
2022-09-16T01:32:55.838Z,12.24
2022-09-16T01:35:21.932Z,12.13
2022-09-16T01:37:48.047Z,12.17
2022-09-16T01:40:14.255Z,12.15
2022-09-16T01:42:40.383Z,12.13
2022-09-16T01:45:06.578Z,12.08
2022-09-16T01:47:32.676Z,12.04
2022-09-16T01:49:58.871Z,12.10
2022-09-16T01:52:25.066Z,12.10
2022-09-16T01:54:51.243Z,12.04
2022-09-16T01:57:19.510Z,12.05
2022-09-16T01:59:45.995Z,12.05
2022-09-16T02:02:12.256Z,11.97
2022-09-16T02:04:38.427Z,12.01
2022-09-16T02:07:04.628Z,11.99
2022-09-16T02:09:30.845Z,12.06
2022-09-16T02:11:56.985Z,12.00
2022-09-16T02:14:23.223Z,11.97
2022-09-16T02:16:49.354Z,11.94
2022-09-16T02:19:15.558Z,11.93
2022-09-16T02:21:45.674Z,11.89
2022-09-16T02:24:12.266Z,11.80
2022-09-16T02:26:38.424Z,11.87
2022-09-16T02:29:04.692Z,11.88
2022-09-16T02:31:30.837Z,11.91
2022-09-16T02:33:56.982Z,11.93
2022-09-16T02:36:24.453Z,11.89
2022-09-16T02:38:50.602Z,11.88
2022-09-16T02:41:16.811Z,11.97
2022-09-16T02:43:42.978Z,11.99
2022-09-16T02:46:09.195Z,11.98
2022-09-16T02:48:35.436Z,12.00
2022-09-16T02:51:01.655Z,11.97
2022-09-16T02:53:27.843Z,11.94
2022-09-16T02:55:53.972Z,11.92
2022-09-16T02:58:20.224Z,11.93
2022-09-16T03:00:46.347Z,11.89
2022-09-16T03:03:12.586Z,11.87
2022-09-16T03:05:38.742Z,11.92
2022-09-16T03:08:04.860Z,11.91
2022-09-16T03:10:30.988Z,11.94
2022-09-16T03:12:57.127Z,12.02
2022-09-16T03:15:23.244Z,11.99
2022-09-16T03:17:49.349Z,11.93
2022-09-16T03:20:15.470Z,11.96
2022-09-16T03:22:41.601Z,12.01
2022-09-16T03:25:07.712Z,12.01
2022-09-16T03:27:34.225Z,12.07
2022-09-16T03:30:00.335Z,11.95
2022-09-16T03:32:26.443Z,11.87
2022-09-16T03:34:52.582Z,11.78
2022-09-16T03:37:18.699Z,11.82
2022-09-16T03:39:44.882Z,11.72
2022-09-16T03:42:11.038Z,11.74
2022-09-16T03:44:37.132Z,11.77
2022-09-16T03:47:03.306Z,11.76
2022-09-16T03:49:29.430Z,11.78
2022-09-16T03:51:55.577Z,11.78
2022-09-16T03:54:21.747Z,11.63
2022-09-16T03:56:47.863Z,11.67
2022-09-16T03:59:13.998Z,11.71
2022-09-16T04:01:40.163Z,11.67
2022-09-16T04:04:06.380Z,11.75
2022-09-16T04:06:32.678Z,11.73
2022-09-16T04:08:58.805Z,11.70
2022-09-16T04:11:24.936Z,11.71
2022-09-16T04:13:51.107Z,11.70
2022-09-16T04:16:17.230Z,11.72
2022-09-16T04:18:43.845Z,11.69
2022-09-16T04:21:09.975Z,11.73
2022-09-16T04:23:36.097Z,11.74
2022-09-16T04:26:02.236Z,11.71
2022-09-16T04:28:28.334Z,11.71
2022-09-16T04:30:54.493Z,11.67
2022-09-16T04:33:21.273Z,11.64
2022-09-16T04:35:47.503Z,11.65
2022-09-16T04:38:13.703Z,11.72
2022-09-16T04:40:39.860Z,11.63
2022-09-16T04:43:06.006Z,11.65
2022-09-16T04:45:32.123Z,11.69
2022-09-16T04:47:58.298Z,11.69
2022-09-16T04:50:24.401Z,11.70
2022-09-16T04:52:50.585Z,11.75
2022-09-16T04:55:16.730Z,11.66
2022-09-16T04:57:42.866Z,11.69
2022-09-16T05:00:09.081Z,11.72
2022-09-16T05:02:35.229Z,11.69
2022-09-16T05:05:01.309Z,11.74
2022-09-16T05:07:27.447Z,11.69
2022-09-16T05:09:53.986Z,11.74
2022-09-16T05:12:20.188Z,11.72
2022-09-16T05:14:48.757Z,11.64
2022-09-16T05:17:33.192Z,11.60
2022-09-16T05:20:01.131Z,11.56
2022-09-16T05:22:27.329Z,11.58
2022-09-16T05:24:53.423Z,11.60
2022-09-16T05:27:19.501Z,11.64
2022-09-16T05:29:45.648Z,11.61
2022-09-16T05:32:11.738Z,11.71
2022-09-16T05:34:37.834Z,11.67
2022-09-16T05:37:04.422Z,11.68
2022-09-16T05:39:30.654Z,11.60
2022-09-16T05:41:56.929Z,11.63
2022-09-16T05:44:23.042Z,11.65
2022-09-16T05:46:49.520Z,11.67
2022-09-16T05:49:15.648Z,11.68
2022-09-16T05:51:41.770Z,11.69
2022-09-16T05:54:08.170Z,11.65
2022-09-16T05:56:34.277Z,11.89
2022-09-16T05:59:00.553Z,11.93
2022-09-16T06:01:26.704Z,12.00
2022-09-16T06:03:55.105Z,11.96
2022-09-16T06:06:21.428Z,12.01
2022-09-16T06:08:47.507Z,12.04
2022-09-16T06:11:13.664Z,11.98
2022-09-16T06:13:39.768Z,11.92
2022-09-16T06:16:05.875Z,11.94
2022-09-16T06:18:32.034Z,11.94
2022-09-16T06:20:58.155Z,12.02
2022-09-16T06:23:24.259Z,11.84
2022-09-16T06:25:50.350Z,11.80
2022-09-16T06:28:16.770Z,11.82
2022-09-16T06:30:42.915Z,11.89
2022-09-16T06:33:09.032Z,11.88
2022-09-16T06:35:35.153Z,11.89
2022-09-16T06:38:01.258Z,11.96
2022-09-16T06:40:27.431Z,12.05
2022-09-16T06:42:57.201Z,12.08
2022-09-16T06:45:26.142Z,12.12
2022-09-16T06:47:52.241Z,12.05
2022-09-16T06:50:18.365Z,12.10
2022-09-16T06:52:44.462Z,12.12
2022-09-16T06:55:10.551Z,12.29
2022-09-16T06:57:36.699Z,12.28
2022-09-16T07:00:03.043Z,12.37
2022-09-16T07:02:29.232Z,12.33
2022-09-16T07:04:55.458Z,12.25
2022-09-16T07:07:21.557Z,12.31
2022-09-16T07:09:47.901Z,12.36
2022-09-16T07:12:18.912Z,12.38
2022-09-16T07:14:45.770Z,12.44
2022-09-16T07:17:11.927Z,12.31
2022-09-16T07:19:38.052Z,12.39
2022-09-16T07:22:04.151Z,12.52
2022-09-16T07:24:30.239Z,12.57
2022-09-16T07:26:56.329Z,12.99
2022-09-16T07:29:22.421Z,12.74
2022-09-16T07:31:48.527Z,12.86
2022-09-16T07:34:14.660Z,12.97
2022-09-16T07:36:40.755Z,12.90
2022-09-16T07:39:06.850Z,13.03
2022-09-16T07:41:32.974Z,13.23
2022-09-16T07:43:59.082Z,13.19
2022-09-16T07:46:25.187Z,12.89
2022-09-16T07:48:51.303Z,12.86
2022-09-16T07:51:17.404Z,12.96
2022-09-16T07:53:43.509Z,12.93
2022-09-16T07:56:09.641Z,12.77
2022-09-16T07:58:35.727Z,12.76
2022-09-16T08:03:48.013Z,12.68
2022-09-16T08:06:14.194Z,12.86
2022-09-16T08:08:40.286Z,12.91
2022-09-16T08:11:06.616Z,12.87
2022-09-16T08:13:32.792Z,12.82
2022-09-16T08:15:58.914Z,13.06
2022-09-16T08:18:25.345Z,12.72
2022-09-16T08:20:51.446Z,12.81
2022-09-16T08:23:17.660Z,12.86
2022-09-16T08:25:43.771Z,12.90
2022-09-16T08:28:09.866Z,12.97
2022-09-16T08:30:35.979Z,12.86
2022-09-16T08:33:02.119Z,12.83
2022-09-16T08:35:28.229Z,12.78
2022-09-16T08:37:54.341Z,12.88
2022-09-16T08:42:47.693Z,13.09
2022-09-16T08:45:13.859Z,13.24
2022-09-16T08:47:40.018Z,13.31
2022-09-16T08:50:06.138Z,13.36
2022-09-16T08:52:32.283Z,13.41
2022-09-16T08:54:58.519Z,13.51
2022-09-16T08:57:24.615Z,13.67
2022-09-16T08:59:51.097Z,13.77
2022-09-16T09:02:17.656Z,13.75
2022-09-16T09:04:44.070Z,13.75
2022-09-16T09:07:10.219Z,13.65
2022-09-16T09:09:36.353Z,13.82
2022-09-16T09:12:02.508Z,13.89
2022-09-16T09:14:28.687Z,13.61
2022-09-16T09:16:54.920Z,13.59
2022-09-16T09:19:21.158Z,13.69
2022-09-16T09:21:47.236Z,13.60
2022-09-16T09:24:13.553Z,13.52
2022-09-16T09:26:39.680Z,13.71
2022-09-16T09:29:05.781Z,13.77
2022-09-16T09:31:31.975Z,13.83
2022-09-16T09:33:58.139Z,13.90
2022-09-16T09:36:24.465Z,14.03
2022-09-16T09:38:50.598Z,14.06
2022-09-16T09:41:16.688Z,13.94
2022-09-16T09:43:42.996Z,13.72
2022-09-16T09:46:09.123Z,13.80
2022-09-16T09:48:35.269Z,13.92
2022-09-16T09:51:01.408Z,13.93
2022-09-16T09:53:27.510Z,13.57
2022-09-16T09:55:53.624Z,12.94
2022-09-16T09:58:19.744Z,12.32
2022-09-16T10:00:45.938Z,12.30
2022-09-16T10:03:12.332Z,12.10
2022-09-16T10:05:38.620Z,12.07
2022-09-16T10:08:04.748Z,12.10
2022-09-16T10:10:30.849Z,12.08
2022-09-16T10:12:56.941Z,12.25
2022-09-16T10:15:23.068Z,12.06
2022-09-16T10:17:49.163Z,12.01
2022-09-16T10:20:15.287Z,12.01
2022-09-16T10:22:41.471Z,12.01
2022-09-16T10:25:07.571Z,12.01
2022-09-16T10:27:33.672Z,12.20
2022-09-16T10:29:59.787Z,12.21
2022-09-16T10:32:26.086Z,12.42
2022-09-16T10:34:52.205Z,12.49
2022-09-16T10:37:18.334Z,12.54
2022-09-16T10:39:44.430Z,12.67
2022-09-16T10:42:10.530Z,12.73
2022-09-16T10:44:36.650Z,12.93
2022-09-16T10:47:02.768Z,12.96
2022-09-16T10:49:28.926Z,13.10
2022-09-16T10:51:55.035Z,13.13
2022-09-16T10:54:21.129Z,13.17
2022-09-16T10:56:47.221Z,13.31
2022-09-16T10:59:13.383Z,13.40
2022-09-16T11:01:42.873Z,13.44
2022-09-16T11:04:10.520Z,13.55
2022-09-16T11:06:36.641Z,13.74
2022-09-16T11:09:02.782Z,13.88
2022-09-16T11:11:29.001Z,14.03
2022-09-16T11:13:55.122Z,14.11
2022-09-16T11:16:21.252Z,14.17
2022-09-16T11:18:50.795Z,14.09
2022-09-16T11:21:19.093Z,14.00
2022-09-16T11:23:47.295Z,13.81
2022-09-16T11:26:13.418Z,13.76
2022-09-16T11:28:40.033Z,13.79
2022-09-16T11:31:06.176Z,13.84
2022-09-16T11:33:32.283Z,13.58
2022-09-16T11:35:58.539Z,13.64
2022-09-16T11:38:24.661Z,13.79
2022-09-16T11:40:50.751Z,13.31
2022-09-16T11:43:16.860Z,12.98
2022-09-16T11:45:42.972Z,13.08
2022-09-16T11:48:09.105Z,13.15
2022-09-16T11:50:35.209Z,13.29
2022-09-16T11:53:04.932Z,13.51
2022-09-16T11:55:31.620Z,13.54
2022-09-16T11:57:58.039Z,13.89
2022-09-16T12:00:24.131Z,14.00
2022-09-16T12:02:50.286Z,14.21
2022-09-16T12:05:16.461Z,14.48
2022-09-16T12:07:42.631Z,14.09
2022-09-16T12:10:08.740Z,14.10
2022-09-16T12:12:34.854Z,14.37
2022-09-16T12:15:04.846Z,14.40
2022-09-16T12:17:31.850Z,14.57
2022-09-16T12:19:57.957Z,14.81
2022-09-16T12:22:24.078Z,14.81
2022-09-16T12:24:50.188Z,14.77
2022-09-16T12:27:16.337Z,14.76
2022-09-16T12:29:42.442Z,14.79
2022-09-16T12:32:08.533Z,14.55
2022-09-16T12:34:34.664Z,14.50
2022-09-16T12:37:00.746Z,14.25
2022-09-16T12:39:26.831Z,13.76
2022-09-16T12:41:52.932Z,13.70
2022-09-16T12:44:33.550Z,13.62
2022-09-16T12:47:00.305Z,13.26
2022-09-16T12:49:26.406Z,12.79
2022-09-16T12:51:52.520Z,12.92
2022-09-16T12:54:18.634Z,13.05
2022-09-16T12:56:44.729Z,12.87
2022-09-16T12:59:10.829Z,13.09
2022-09-16T13:01:37.161Z,12.64
2022-09-16T13:04:03.500Z,12.21
2022-09-16T13:06:29.828Z,12.00
2022-09-16T13:08:56.187Z,12.00
2022-09-16T13:12:24.123Z,11.84
2022-09-16T13:14:10.402Z,12.27
2022-09-16T13:16:36.668Z,12.26
2022-09-16T13:19:02.954Z,12.13
2022-09-16T13:21:29.347Z,12.15
2022-09-16T13:23:55.549Z,11.96
2022-09-16T13:26:21.786Z,11.74
2022-09-16T13:28:48.010Z,11.63
2022-09-16T13:31:14.278Z,11.60
2022-09-16T13:33:40.530Z,11.29
2022-09-16T13:36:07.137Z,11.31
2022-09-16T13:38:33.302Z,11.33
2022-09-16T13:40:59.414Z,11.36
2022-09-16T13:43:25.601Z,11.41
2022-09-16T13:45:51.752Z,11.45
2022-09-16T13:48:17.875Z,11.62
2022-09-16T13:50:43.964Z,11.92
2022-09-16T13:53:10.085Z,11.92
2022-09-16T13:55:36.293Z,11.91
2022-09-16T13:58:02.670Z,11.83
2022-09-16T14:00:32.448Z,11.84
2022-09-16T14:03:01.753Z,11.79
2022-09-16T14:05:27.924Z,11.83
2022-09-16T14:07:54.060Z,11.83
2022-09-16T14:10:20.204Z,11.88
2022-09-16T14:12:46.337Z,11.83
2022-09-16T14:15:12.666Z,11.75
2022-09-16T14:17:38.764Z,11.70
2022-09-16T14:20:04.958Z,11.45
2022-09-16T14:22:31.112Z,11.42
2022-09-16T14:25:06.507Z,11.44
2022-09-16T14:27:39.028Z,11.35
2022-09-16T14:30:05.199Z,11.29
2022-09-16T14:32:31.327Z,11.26
2022-09-16T14:34:57.449Z,11.19
2022-09-16T14:37:23.551Z,11.24
2022-09-16T14:39:54.484Z,11.29
2022-09-16T14:42:21.290Z,11.43
2022-09-16T14:44:47.404Z,11.54
2022-09-16T14:47:21.917Z,11.60
2022-09-16T14:49:55.731Z,11.74
2022-09-16T14:52:21.871Z,11.90
2022-09-16T14:54:47.981Z,12.05
2022-09-16T14:57:14.124Z,11.96
2022-09-16T14:59:40.230Z,12.43
2022-09-16T15:02:06.334Z,13.34
2022-09-16T15:04:32.928Z,13.77
2022-09-16T15:07:03.533Z,13.90
2022-09-16T15:09:30.028Z,14.59
2022-09-16T15:11:56.138Z,15.28
2022-09-16T15:14:22.236Z,16.38
2022-09-16T15:16:48.376Z,17.71
2022-09-16T15:19:14.487Z,18.35
2022-09-16T15:21:40.602Z,19.03
2022-09-16T15:24:06.688Z,19.57
2022-09-16T15:26:32.796Z,19.16
2022-09-16T15:28:59.120Z,19.32
2022-09-16T15:31:25.315Z,19.62
2022-09-16T15:33:51.559Z,19.71
2022-09-16T15:36:17.740Z,19.79
2022-09-16T15:38:44.804Z,20.16
2022-09-16T15:41:11.099Z,20.16
2022-09-16T15:43:37.186Z,20.25
2022-09-16T15:46:03.390Z,19.80
2022-09-16T15:48:29.843Z,19.76
2022-09-16T15:50:55.937Z,19.66
2022-09-16T15:53:22.083Z,19.41
2022-09-16T15:55:48.191Z,19.36
2022-09-16T15:58:14.285Z,18.92
2022-09-16T16:00:40.373Z,18.44
2022-09-16T16:03:06.478Z,17.72
2022-09-16T16:05:32.579Z,16.23
2022-09-16T16:07:58.660Z,17.02
2022-09-16T16:10:24.762Z,16.28
2022-09-16T16:12:50.879Z,15.29
2022-09-16T16:15:16.993Z,16.26
2022-09-16T16:17:43.097Z,17.15
2022-09-16T16:20:09.194Z,16.08
2022-09-16T16:22:35.420Z,14.94
2022-09-16T16:25:01.543Z,14.56
2022-09-16T16:27:27.643Z,14.49
2022-09-16T16:29:53.811Z,14.47
2022-09-16T16:32:19.939Z,14.17
2022-09-16T16:34:46.033Z,13.79
2022-09-16T16:37:28.020Z,13.74
2022-09-16T16:39:58.330Z,13.61
2022-09-16T16:42:24.519Z,13.58
2022-09-16T16:44:50.629Z,13.11
2022-09-16T16:47:16.765Z,11.44
2022-09-16T16:49:42.858Z,11.36
2022-09-16T16:52:08.948Z,11.17
2022-09-16T16:54:35.062Z,11.21
2022-09-16T16:57:01.165Z,11.17
2022-09-16T16:59:27.300Z,11.49
2022-09-16T17:01:53.476Z,11.44
2022-09-16T17:04:19.585Z,11.47
2022-09-16T17:06:45.682Z,11.31
2022-09-16T17:09:15.688Z,11.03
2022-09-16T17:11:42.090Z,10.95
2022-09-16T17:14:08.302Z,10.79
2022-09-16T17:16:34.409Z,10.75
2022-09-16T17:19:00.501Z,10.75
2022-09-16T17:21:26.614Z,10.53
2022-09-16T17:23:52.730Z,10.50
2022-09-16T17:26:18.827Z,10.53
2022-09-16T17:28:44.914Z,10.51
2022-09-16T17:31:11.138Z,10.47
2022-09-16T17:33:37.283Z,10.29
2022-09-16T17:36:03.414Z,10.36
2022-09-16T17:38:29.534Z,10.36
2022-09-16T17:40:55.663Z,10.22
2022-09-16T17:43:21.773Z,10.13
2022-09-16T17:45:47.921Z,10.05
2022-09-16T17:48:14.043Z,9.97
2022-09-16T17:50:40.140Z,9.87
2022-09-16T17:53:06.328Z,9.82
2022-09-16T17:55:32.446Z,9.83
2022-09-16T17:57:58.558Z,9.85
2022-09-16T18:00:24.669Z,9.76
2022-09-16T18:02:50.802Z,9.75
2022-09-16T18:05:16.999Z,9.71
2022-09-16T18:07:43.195Z,9.77
2022-09-16T18:10:09.286Z,9.85
2022-09-16T18:12:35.364Z,9.69
2022-09-16T18:15:01.477Z,9.50
2022-09-16T18:17:27.582Z,9.45
2022-09-16T18:19:53.686Z,9.45
2022-09-16T18:22:19.788Z,9.35
2022-09-16T18:24:45.951Z,9.44
2022-09-16T18:27:12.091Z,9.31
2022-09-16T18:29:38.206Z,9.37
2022-09-16T18:32:04.287Z,9.35
2022-09-16T18:34:33.497Z,9.35
2022-09-16T18:36:59.920Z,9.46
2022-09-16T18:39:26.016Z,9.43
2022-09-16T18:41:52.104Z,9.44
2022-09-16T18:44:18.204Z,9.42
2022-09-16T18:46:44.342Z,9.38
2022-09-16T18:49:10.464Z,9.43
2022-09-16T18:51:36.588Z,9.34
2022-09-16T18:54:02.692Z,9.42
2022-09-16T18:56:28.794Z,9.42
2022-09-16T18:59:19.749Z,9.41
2022-09-16T19:01:41.222Z,9.39
2022-09-16T19:04:07.609Z,9.43
2022-09-16T19:06:33.742Z,9.46
2022-09-16T19:08:59.840Z,9.44
2022-09-16T19:11:25.946Z,9.58
2022-09-16T19:13:52.049Z,9.55
2022-09-16T19:16:18.153Z,9.53
2022-09-16T19:18:44.253Z,9.52
2022-09-16T19:21:10.345Z,9.50
2022-09-16T19:23:36.560Z,9.62
2022-09-16T19:26:02.687Z,9.56
2022-09-16T19:28:28.784Z,9.58
2022-09-16T19:30:54.883Z,9.62
2022-09-16T19:33:21.002Z,9.48
2022-09-16T19:35:47.096Z,9.56
2022-09-16T19:38:13.182Z,9.49
2022-09-16T19:40:39.372Z,9.55
2022-09-16T19:43:05.472Z,9.49
2022-09-16T19:45:31.602Z,9.49
2022-09-16T19:47:57.722Z,9.57
2022-09-16T19:50:23.804Z,9.52
2022-09-16T19:52:52.334Z,9.51
2022-09-16T19:55:18.499Z,9.68
2022-09-16T19:57:44.657Z,9.63
2022-09-16T20:00:10.746Z,9.65
2022-09-16T20:02:36.939Z,9.64
2022-09-16T20:05:04.991Z,9.63
2022-09-16T20:07:34.436Z,9.56
2022-09-16T20:10:00.571Z,9.74
2022-09-16T20:12:26.732Z,9.67
2022-09-16T20:14:52.834Z,9.75
2022-09-16T20:17:18.990Z,9.71
2022-09-16T20:19:45.270Z,9.73
2022-09-16T20:22:11.654Z,9.65
2022-09-16T20:24:37.769Z,9.70
2022-09-16T20:27:03.851Z,9.67
2022-09-16T20:29:29.946Z,9.70
2022-09-16T20:31:56.131Z,9.75
2022-09-16T20:34:22.283Z,9.72
2022-09-16T20:36:48.364Z,9.75
2022-09-16T20:39:14.498Z,9.78
2022-09-16T20:41:40.593Z,9.79
2022-09-16T20:44:06.681Z,9.90
2022-09-16T20:46:32.795Z,10.06
2022-09-16T20:48:58.895Z,10.14
2022-09-16T20:51:25.001Z,10.10
2022-09-16T20:53:51.134Z,10.13
2022-09-16T20:56:17.225Z,10.11
2022-09-16T20:58:43.326Z,10.10
2022-09-16T21:01:09.549Z,10.09
2022-09-16T21:03:35.700Z,10.09
2022-09-16T21:06:01.793Z,10.07
2022-09-16T21:08:33.231Z,10.00
2022-09-16T21:11:00.122Z,10.05
2022-09-16T21:13:26.224Z,10.03
2022-09-16T21:15:52.344Z,10.13
2022-09-16T21:18:18.462Z,10.06
2022-09-16T21:20:44.545Z,10.07
2022-09-16T21:23:10.663Z,10.13
2022-09-16T21:25:36.753Z,10.16
2022-09-16T21:28:02.887Z,10.15
2022-09-16T21:30:29.097Z,10.13
2022-09-16T21:32:55.201Z,10.12
2022-09-16T21:35:21.305Z,10.12
2022-09-16T21:40:31.331Z,10.14
2022-09-16T21:42:57.553Z,10.02
2022-09-16T21:45:23.647Z,10.05
2022-09-16T21:47:49.746Z,9.96
2022-09-16T21:50:15.854Z,9.87
2022-09-16T21:52:41.936Z,9.87
2022-09-16T21:55:08.052Z,9.79
2022-09-16T21:57:34.154Z,9.97
2022-09-16T22:00:00.286Z,10.01
2022-09-16T22:02:29.102Z,10.02
2022-09-16T22:04:55.419Z,10.05
2022-09-16T22:07:21.521Z,10.01
2022-09-16T22:09:47.606Z,9.98
2022-09-16T22:12:13.719Z,10.07
2022-09-16T22:14:39.820Z,10.03
2022-09-16T22:17:05.944Z,10.04
2022-09-16T22:19:32.042Z,10.00
2022-09-16T22:21:58.143Z,10.03
2022-09-16T22:24:24.250Z,10.01
2022-09-16T22:26:50.365Z,10.02
2022-09-16T22:29:16.478Z,9.97
2022-09-16T22:31:42.602Z,9.98
2022-09-16T22:34:08.753Z,9.90
2022-09-16T22:36:34.851Z,9.91
2022-09-16T22:39:01.031Z,9.93
2022-09-16T22:41:27.178Z,9.88
2022-09-16T22:43:53.282Z,9.94
2022-09-16T22:46:19.459Z,9.92
2022-09-16T22:48:45.648Z,9.89
2022-09-16T22:51:11.739Z,9.99
2022-09-16T22:53:37.845Z,9.96
2022-09-16T22:56:03.969Z,9.88
2022-09-16T22:58:30.048Z,9.74
2022-09-16T23:00:56.152Z,9.73
2022-09-16T23:03:22.263Z,9.81
2022-09-16T23:05:48.366Z,9.73
2022-09-16T23:08:14.533Z,9.75
2022-09-16T23:10:40.662Z,9.69
2022-09-16T23:13:06.762Z,9.70
2022-09-16T23:15:32.861Z,9.63
2022-09-16T23:17:59.267Z,9.57
2022-09-16T23:20:25.353Z,9.61
2022-09-16T23:22:51.446Z,9.55
2022-09-16T23:25:17.592Z,9.81
2022-09-16T23:27:43.700Z,9.66
2022-09-16T23:30:09.806Z,9.41
2022-09-16T23:32:35.954Z,9.53
2022-09-16T23:35:02.078Z,9.54
2022-09-16T23:37:28.190Z,9.48
2022-09-16T23:39:54.411Z,9.51
2022-09-16T23:42:20.622Z,9.52
2022-09-16T23:44:46.718Z,9.49
2022-09-16T23:47:12.923Z,9.62
2022-09-16T23:49:39.021Z,9.55
2022-09-16T23:52:05.130Z,9.45
2022-09-16T23:54:31.287Z,9.44
2022-09-16T23:56:57.428Z,9.46
2022-09-16T23:59:23.566Z,9.49
